Time;durP1;ratioP1;P1;durP2;ratioP2;P2;SDS_P1;SDS_P2;PMS_P1;PMS_P2;Temp;Humidity;BMP_temperature;BMP_pressure;BME280_temperature;BME280_humidity;BME280_pressure;Samples;Min_cycle;Max_cycle;Signal;HPM_P1;HPM_P2
2021/06/12 00:01:30;;;;;;;42.33;26.17;;;17.70;93.50;;;;;;4939786;28;20021;-79
2021/06/12 00:04:16;;;;;;;40.53;25.63;;;17.70;93.90;;;;;;4898609;28;20529;-79
2021/06/12 00:07:01;;;;;;;43.13;27.73;;;17.70;94.00;;;;;;4928015;29;20551;-80
2021/06/12 00:09:47;;;;;;;41.13;28.15;;;17.70;94.10;;;;;;4922681;28;20047;-79
2021/06/12 00:12:25;;;;;;;43.80;28.25;;;17.70;94.20;;;;;;4909706;29;20438;-80
2021/06/12 00:15:12;;;;;;;45.65;28.40;;;17.70;94.30;;;;;;4939275;28;20047;-80
2021/06/12 00:17:58;;;;;;;41.90;28.33;;;17.60;94.30;;;;;;4910723;29;20486;-80
2021/06/12 00:20:37;;;;;;;44.17;28.55;;;17.60;94.40;;;;;;4938208;28;20066;-80
2021/06/12 00:23:08;;;;;;;50.58;30.15;;;17.60;94.50;;;;;;4936301;28;20027;-80
2021/06/12 00:25:42;;;;;;;46.50;30.15;;;17.60;94.50;;;;;;4934422;28;20039;-80
2021/06/12 00:28:09;;;;;;;48.95;30.88;;;17.60;94.50;;;;;;4938074;28;20035;-79
2021/06/12 00:30:55;;;;;;;53.17;31.88;;;17.60;94.60;;;;;;4937998;28;20666;-80
2021/06/12 00:33:21;;;;;;;50.58;32.25;;;17.60;94.60;;;;;;4919501;29;20431;-80
2021/06/12 00:35:47;;;;;;;55.80;34.58;;;17.60;94.60;;;;;;4922582;29;20043;-80
2021/06/12 00:38:33;;;;;;;57.67;35.13;;;17.60;94.70;;;;;;4937463;28;20047;-80
2021/06/12 00:41:00;;;;;;;52.20;34.65;;;17.60;94.70;;;;;;4923378;28;20035;-80
2021/06/12 00:43:26;;;;;;;53.45;34.92;;;17.60;94.70;;;;;;4939746;28;20521;-80
2021/06/12 00:45:54;;;;;;;59.22;35.92;;;17.60;94.70;;;;;;4935707;28;20415;-80
2021/06/12 00:48:21;;;;;;;57.00;34.88;;;17.60;94.80;;;;;;4907597;29;20102;-80
2021/06/12 00:50:50;;;;;;;60.90;37.80;;;17.70;94.80;;;;;;4947209;28;20459;-80
2021/06/12 00:53:37;;;;;;;54.22;35.97;;;17.60;94.90;;;;;;4944515;28;20061;-80
2021/06/12 00:56:12;;;;;;;58.85;36.03;;;17.60;94.90;;;;;;4919033;28;20043;-80
2021/06/12 00:58:44;;;;;;;59.50;37.08;;;17.60;94.90;;;;;;4934547;28;20438;-81
2021/06/12 01:01:18;;;;;;;59.22;36.38;;;17.60;94.90;;;;;;4933684;28;20036;-80
2021/06/12 01:03:58;;;;;;;60.85;37.80;;;17.60;94.90;;;;;;4932276;28;20040;-80
2021/06/12 01:06:49;;;;;;;62.50;38.08;;;17.60;94.90;;;;;;4936434;28;20154;-80
2021/06/12 01:09:35;;;;;;;66.43;40.17;;;17.60;95.00;;;;;;4914944;28;20044;-80
2021/06/12 01:12:42;;;;;;;60.05;37.58;;;17.60;95.00;;;;;;4925502;28;20108;-81
2021/06/12 01:15:34;;;;;;;65.63;37.00;;;17.60;95.00;;;;;;4927619;28;20047;-81
2021/06/12 01:18:26;;;;;;;64.57;38.17;;;17.60;95.00;;;;;;4917559;29;20048;-80
2021/06/12 01:21:32;;;;;;;57.55;36.42;;;17.60;94.90;;;;;;4920433;28;20051;-80
2021/06/12 01:24:32;;;;;;;61.78;36.38;;;17.60;94.90;;;;;;4930909;28;20133;-80
2021/06/12 01:27:30;;;;;;;59.88;37.25;;;17.60;94.90;;;;;;4933646;28;20039;-80
2021/06/12 01:30:17;;;;;;;58.40;36.25;;;17.60;94.90;;;;;;4919685;28;20086;-81
2021/06/12 01:33:10;;;;;;;58.38;36.05;;;17.60;94.90;;;;;;4935954;28;20117;-80
2021/06/12 01:36:14;;;;;;;59.25;35.63;;;17.60;95.00;;;;;;4923512;28;20055;-81
2021/06/12 01:39:03;;;;;;;66.82;35.65;;;17.60;94.90;;;;;;4921142;28;20051;-80
2021/06/12 01:41:51;;;;;;;57.72;35.25;;;17.60;95.00;;;;;;4944872;28;20530;-80
2021/06/12 01:44:40;;;;;;;55.13;35.67;;;17.60;95.00;;;;;;4936713;28;20066;-80
2021/06/12 01:47:26;;;;;;;52.97;32.40;;;17.60;95.00;;;;;;4931970;28;20499;-81
2021/06/12 01:50:13;;;;;;;57.22;34.10;;;17.60;95.00;;;;;;4918401;28;20059;-81
2021/06/12 01:52:42;;;;;;;52.63;32.75;;;17.60;95.00;;;;;;4933735;28;20045;-81
2021/06/12 01:55:33;;;;;;;50.60;33.13;;;17.60;95.10;;;;;;4899968;28;20051;-80
2021/06/12 01:58:22;;;;;;;56.97;34.53;;;17.60;95.10;;;;;;4920368;28;20183;-81
2021/06/12 02:01:15;;;;;;;56.90;33.10;;;17.60;95.10;;;;;;4932984;28;20691;-81
2021/06/12 02:04:02;;;;;;;54.78;32.13;;;17.60;95.10;;;;;;4917362;28;20426;-81
2021/06/12 02:06:50;;;;;;;54.28;34.15;;;17.50;95.10;;;;;;4908449;28;20062;-81
2021/06/12 02:09:39;;;;;;;55.30;32.67;;;17.50;95.20;;;;;;4920171;28;20493;-81
2021/06/12 02:12:28;;;;;;;59.25;34.67;;;17.50;95.20;;;;;;4922335;28;20610;-81
2021/06/12 02:15:15;;;;;;;60.65;34.97;;;17.50;95.30;;;;;;4920329;28;20589;-80
2021/06/12 02:18:10;;;;;;;62.50;34.33;;;17.50;95.30;;;;;;4934690;28;20048;-81
2021/06/12 02:20:57;;;;;;;61.17;34.85;;;17.50;95.40;;;;;;4921272;28;20079;-82
2021/06/12 02:23:43;;;;;;;61.38;36.17;;;17.50;95.40;;;;;;4922338;29;20958;-81
2021/06/12 02:26:33;;;;;;;58.30;34.13;;;17.40;95.40;;;;;;4920079;28;20055;-81
2021/06/12 02:29:20;;;;;;;64.47;35.40;;;17.40;95.40;;;;;;4917524;28;20128;-81
2021/06/12 02:32:09;;;;;;;64.97;38.22;;;17.40;95.50;;;;;;4935161;28;20048;-81
2021/06/12 02:34:55;;;;;;;63.95;37.90;;;17.40;95.50;;;;;;4920229;28;20047;-81
2021/06/12 02:37:45;;;;;;;68.50;39.72;;;17.40;95.60;;;;;;4925551;28;20054;-81
2021/06/12 02:40:31;;;;;;;67.15;38.03;;;17.40;95.70;;;;;;4919872;29;20051;-81
2021/06/12 02:43:17;;;;;;;68.72;40.05;;;17.40;95.70;;;;;;4924743;28;20047;-81
2021/06/12 02:46:08;;;;;;;72.07;40.58;;;17.30;95.70;;;;;;4931267;29;20510;-81
2021/06/12 02:49:00;;;;;;;71.72;40.67;;;17.30;95.80;;;;;;4944784;28;20058;-81
2021/06/12 02:51:51;;;;;;;72.05;40.40;;;17.30;95.80;;;;;;4921401;28;20114;-81
2021/06/12 02:54:39;;;;;;;71.93;42.13;;;17.30;95.80;;;;;;4936946;28;20051;-80
2021/06/12 02:57:26;;;;;;;71.90;40.25;;;17.30;95.90;;;;;;4907837;28;20054;-81
2021/06/12 03:00:13;;;;;;;69.10;40.35;;;17.30;95.90;;;;;;4933865;28;20055;-81
2021/06/12 03:03:00;;;;;;;68.38;40.17;;;17.30;96.00;;;;;;4921685;28;20490;-81
2021/06/12 03:05:50;;;;;;;74.57;41.47;;;17.40;96.00;;;;;;4920005;28;20142;-81
2021/06/12 03:08:39;;;;;;;71.82;41.10;;;17.40;96.00;;;;;;4929303;28;20362;-80
2021/06/12 03:11:08;;;;;;;75.88;41.80;;;17.40;96.00;;;;;;4928739;28;20439;-81
2021/06/12 03:13:38;;;;;;;71.88;42.13;;;17.40;96.10;;;;;;4934240;28;20062;-81
2021/06/12 03:16:07;;;;;;;76.23;42.33;;;17.40;96.10;;;;;;4937931;28;20106;-81
2021/06/12 03:18:47;;;;;;;78.82;42.97;;;17.30;96.10;;;;;;4938293;28;20291;-81
2021/06/12 03:21:34;;;;;;;78.00;41.60;;;17.30;96.10;;;;;;4909345;29;20047;-81
2021/06/12 03:24:20;;;;;;;74.13;42.85;;;17.40;96.10;;;;;;4919339;28;20070;-82
2021/06/12 03:27:07;;;;;;;77.53;42.95;;;17.30;96.20;;;;;;4925170;29;20050;-81
2021/06/12 03:29:34;;;;;;;82.78;44.83;;;17.40;96.20;;;;;;4939813;28;20031;-81
2021/06/12 03:32:01;;;;;;;80.55;45.35;;;17.40;96.30;;;;;;4933020;28;20051;-82
2021/06/12 03:34:47;;;;;;;81.35;45.35;;;17.40;96.30;;;;;;4908916;29;20487;-81
2021/06/12 03:37:32;;;;;;;85.20;47.85;;;17.30;96.30;;;;;;4918008;28;20047;-81
2021/06/12 03:39:59;;;;;;;82.18;44.67;;;17.40;96.40;;;;;;4939327;28;20044;-81
2021/06/12 03:42:46;;;;;;;86.70;47.83;;;17.40;96.40;;;;;;4920212;28;20046;-82
2021/06/12 03:45:17;;;;;;;85.55;46.58;;;17.40;96.40;;;;;;4932150;28;20062;-82
2021/06/12 03:47:49;;;;;;;86.40;46.53;;;17.40;96.50;;;;;;4916753;28;20057;-81
2021/06/12 03:50:21;;;;;;;84.35;45.15;;;17.40;96.50;;;;;;4933255;28;20126;-82
2021/06/12 03:53:08;;;;;;;88.70;48.22;;;17.40;96.50;;;;;;4921739;29;20047;-81
2021/06/12 03:55:54;;;;;;;89.57;47.28;;;17.40;96.50;;;;;;4925528;29;20415;-82
2021/06/12 03:58:43;;;;;;;89.18;46.92;;;17.40;96.50;;;;;;4909776;29;20474;-81
2021/06/12 04:01:29;;;;;;;91.28;49.42;;;17.40;96.60;;;;;;4925282;29;20229;-81
2021/06/12 04:04:15;;;;;;;89.43;48.00;;;17.40;96.60;;;;;;4923734;28;20503;-81
2021/06/12 04:07:01;;;;;;;87.68;47.83;;;17.40;96.60;;;;;;4924463;28;20113;-83
2021/06/12 04:09:27;;;;;;;91.43;49.90;;;17.40;96.60;;;;;;4922700;29;20123;-81
2021/06/12 04:11:56;;;;;;;93.93;51.55;;;17.40;96.60;;;;;;4921484;28;20568;-82
2021/06/12 04:14:21;;;;;;;91.10;50.85;;;17.40;96.60;;;;;;4938893;28;20051;-80
2021/06/12 04:17:08;;;;;;;91.50;51.83;;;17.40;96.60;;;;;;4933823;28;20089;-81
2021/06/12 04:19:53;;;;;;;91.78;53.05;;;17.40;96.50;;;;;;4922815;28;20130;-80
2021/06/12 04:22:41;;;;;;;96.22;53.60;;;17.40;96.50;;;;;;4925373;28;20049;-81
2021/06/12 04:25:26;;;;;;;85.35;50.67;;;17.40;96.50;;;;;;4910694;29;20082;-81
2021/06/12 04:28:12;;;;;;;90.20;52.53;;;17.40;96.50;;;;;;4923419;28;20043;-80
2021/06/12 04:30:58;;;;;;;83.40;50.47;;;17.40;96.50;;;;;;4923196;28;20499;-80
2021/06/12 04:33:44;;;;;;;85.82;51.55;;;17.40;96.50;;;;;;4927954;29;20043;-81
2021/06/12 04:36:30;;;;;;;81.18;49.67;;;17.40;96.50;;;;;;4937598;28;20649;-80
2021/06/12 04:39:16;;;;;;;81.53;50.47;;;17.40;96.50;;;;;;4927010;29;20565;-81
2021/06/12 04:42:02;;;;;;;82.40;49.83;;;17.50;96.40;;;;;;4928323;28;20043;-81
2021/06/12 04:44:48;;;;;;;72.43;45.47;;;17.50;96.40;;;;;;4909089;28;20146;-82
2021/06/12 04:47:35;;;;;;;73.22;44.47;;;17.60;96.30;;;;;;4904459;29;20127;-82
2021/06/12 04:50:04;;;;;;;72.40;45.42;;;17.60;96.20;;;;;;4938721;28;20066;-81
2021/06/12 04:52:42;;;;;;;70.65;43.15;;;17.60;96.20;;;;;;4940462;28;20051;-81
2021/06/12 04:55:28;;;;;;;73.82;43.08;;;17.60;96.10;;;;;;4900673;29;20047;-81
2021/06/12 04:57:54;;;;;;;64.50;42.20;;;17.60;96.00;;;;;;4940673;28;20398;-81
2021/06/12 05:00:40;;;;;;;66.68;41.08;;;17.60;96.00;;;;;;4913201;28;20042;-80
2021/06/12 05:03:06;;;;;;;71.20;40.78;;;17.60;95.90;;;;;;4924170;28;20042;-81
2021/06/12 05:05:33;;;;;;;57.25;35.13;;;17.60;95.90;;;;;;4940489;28;20362;-81
2021/06/12 05:08:02;;;;;;;57.85;37.42;;;17.60;95.80;;;;;;4944748;28;20766;-81
2021/06/12 05:10:36;;;;;;;54.17;34.58;;;17.70;95.70;;;;;;4925800;28;20174;-80
2021/06/12 05:13:03;;;;;;;51.45;32.47;;;17.60;95.60;;;;;;4939126;28;20469;-81
2021/06/12 05:15:30;;;;;;;52.47;34.67;;;17.60;95.50;;;;;;4938912;28;20043;-80
2021/06/12 05:18:03;;;;;;;53.67;33.65;;;17.60;95.50;;;;;;4919151;29;20047;-81
2021/06/12 05:20:29;;;;;;;53.05;33.45;;;17.60;95.50;;;;;;4927173;28;20074;-81
2021/06/12 05:22:55;;;;;;;53.03;32.78;;;17.60;95.40;;;;;;4909208;28;20032;-81
2021/06/12 05:25:23;;;;;;;52.25;30.67;;;17.60;95.40;;;;;;4949064;28;21155;-81
2021/06/12 05:27:48;;;;;;;48.75;29.15;;;17.60;95.40;;;;;;4928733;28;20047;-81
2021/06/12 05:30:15;;;;;;;44.42;28.48;;;17.60;95.30;;;;;;4925658;28;20519;-81
2021/06/12 05:32:41;;;;;;;46.13;29.02;;;17.70;95.20;;;;;;4950075;23;20659;-82
2021/06/12 05:35:23;;;;;;;42.30;27.10;;;17.70;95.20;;;;;;4953230;28;20066;-81
2021/06/12 05:37:49;;;;;;;47.80;27.50;;;17.70;95.30;;;;;;4939041;28;20089;-82
2021/06/12 05:40:15;;;;;;;41.55;28.10;;;17.80;95.10;;;;;;4954371;28;20663;-81
2021/06/12 05:42:42;;;;;;;42.33;28.17;;;17.80;95.00;;;;;;4968016;28;20480;-80
2021/06/12 05:45:10;;;;;;;42.75;27.75;;;17.80;94.90;;;;;;4923782;28;20384;-84
2021/06/12 05:47:42;;;;;;;40.67;27.05;;;17.90;94.90;;;;;;4943821;28;20039;-82
2021/06/12 05:50:11;;;;;;;43.10;25.45;;;17.90;94.90;;;;;;4957193;28;20063;-81
2021/06/12 05:52:42;;;;;;;44.22;25.42;;;18.00;94.80;;;;;;4921999;28;20040;-82
2021/06/12 05:55:15;;;;;;;33.47;23.15;;;18.00;94.70;;;;;;4922040;28;20043;-82
2021/06/12 05:57:41;;;;;;;38.10;23.60;;;18.10;94.60;;;;;;4932614;28;20045;-82
2021/06/12 06:00:10;;;;;;;34.83;22.73;;;18.10;94.50;;;;;;4935879;28;20061;-82
2021/06/12 06:02:45;;;;;;;34.00;19.70;;;18.10;94.40;;;;;;4935604;28;20053;-81
2021/06/12 06:05:11;;;;;;;33.85;21.48;;;18.10;94.30;;;;;;4927121;28;20077;-81
2021/06/12 06:07:37;;;;;;;35.15;21.15;;;18.10;94.20;;;;;;4927539;28;20034;-80
2021/06/12 06:10:06;;;;;;;33.65;20.38;;;18.10;94.20;;;;;;4934921;28;20039;-80
2021/06/12 06:12:36;;;;;;;30.83;18.40;;;18.20;94.10;;;;;;4938175;28;20094;-82
2021/06/12 06:15:12;;;;;;;28.90;18.40;;;18.20;93.90;;;;;;4935695;28;20568;-82
2021/06/12 06:17:40;;;;;;;26.35;16.35;;;18.20;93.90;;;;;;4939550;28;20074;-81
2021/06/12 06:20:09;;;;;;;27.27;15.95;;;18.20;93.70;;;;;;4944389;28;20038;-81
2021/06/12 06:22:36;;;;;;;28.85;15.75;;;18.20;93.40;;;;;;4953785;28;20490;-82
2021/06/12 06:25:05;;;;;;;24.85;15.48;;;18.30;93.30;;;;;;4934369;28;20046;-82
2021/06/12 06:27:41;;;;;;;23.17;14.65;;;18.30;93.30;;;;;;4935440;28;20046;-82
2021/06/12 06:30:13;;;;;;;24.85;14.45;;;18.30;93.20;;;;;;4926472;28;20070;-81
2021/06/12 06:32:39;;;;;;;22.52;13.45;;;18.30;93.20;;;;;;4934520;28;20534;-81
2021/06/12 06:35:14;;;;;;;22.27;12.20;;;18.30;93.00;;;;;;4926806;28;20043;-80
2021/06/12 06:37:42;;;;;;;20.45;12.15;;;18.30;92.90;;;;;;4933993;28;20619;-81
2021/06/12 06:40:10;;;;;;;20.58;10.23;;;18.30;92.70;;;;;;4933698;28;20404;-81
2021/06/12 06:42:36;;;;;;;16.17;9.25;;;18.40;92.20;;;;;;4922478;29;20245;-81
2021/06/12 06:45:03;;;;;;;19.15;9.50;;;18.40;92.00;;;;;;4946870;28;20050;-82
2021/06/12 06:47:30;;;;;;;17.30;9.60;;;18.30;91.80;;;;;;4944358;28;20035;-82
2021/06/12 06:49:56;;;;;;;15.93;8.98;;;18.40;91.60;;;;;;4935620;28;20130;-81
2021/06/12 06:52:44;;;;;;;17.63;9.02;;;18.30;91.40;;;;;;4911365;28;20067;-81
2021/06/12 06:55:11;;;;;;;13.70;8.93;;;18.40;91.50;;;;;;4934331;28;20030;-81
2021/06/12 06:57:37;;;;;;;16.65;8.32;;;18.40;91.40;;;;;;4931105;28;20253;-80
2021/06/12 07:00:05;;;;;;;15.48;7.78;;;18.50;91.30;;;;;;4935225;28;20090;-80
2021/06/12 07:02:34;;;;;;;16.38;8.25;;;18.50;91.00;;;;;;4943595;28;20031;-82
2021/06/12 07:04:59;;;;;;;14.40;8.68;;;18.60;90.70;;;;;;4948450;28;20036;-80
2021/06/12 07:07:25;;;;;;;12.00;8.30;;;18.50;90.60;;;;;;4953451;28;20497;-81
2021/06/12 07:09:52;;;;;;;14.52;7.80;;;18.60;90.60;;;;;;4951156;28;20062;-80
2021/06/12 07:12:19;;;;;;;14.05;7.65;;;18.50;90.70;;;;;;4919435;28;20308;-81
2021/06/12 07:14:44;;;;;;;13.57;8.15;;;18.60;90.60;;;;;;4935556;28;20035;-81
2021/06/12 07:17:11;;;;;;;13.25;7.78;;;18.60;90.40;;;;;;4927430;28;20093;-81
2021/06/12 07:19:38;;;;;;;18.25;8.63;;;18.60;90.20;;;;;;4966794;28;20036;-79
2021/06/12 07:22:04;;;;;;;13.55;7.63;;;18.60;90.30;;;;;;4963711;28;20032;-81
2021/06/12 07:24:36;;;;;;;13.05;7.57;;;18.60;90.20;;;;;;4956451;28;20466;-81
2021/06/12 07:27:07;;;;;;;13.60;8.02;;;18.60;90.20;;;;;;4936281;28;20091;-81
2021/06/12 07:29:37;;;;;;;13.65;7.72;;;18.70;90.10;;;;;;4951861;28;20027;-82
2021/06/12 07:32:04;;;;;;;13.85;7.75;;;18.70;89.90;;;;;;4929331;29;20047;-81
2021/06/12 07:34:30;;;;;;;14.32;7.13;;;18.70;89.50;;;;;;4913416;28;20114;-81
2021/06/12 07:36:55;;;;;;;9.38;6.75;;;18.80;89.10;;;;;;4944335;28;20482;-82
2021/06/12 07:39:21;;;;;;;9.85;6.20;;;18.80;89.20;;;;;;4931171;28;20034;-81
2021/06/12 07:41:47;;;;;;;12.35;5.72;;;18.80;89.10;;;;;;4956559;28;20497;-81
2021/06/12 07:44:13;;;;;;;9.57;5.50;;;18.90;88.90;;;;;;4955947;28;20038;-81
2021/06/12 07:46:39;;;;;;;10.30;5.05;;;18.90;88.00;;;;;;4955939;28;20122;-80
2021/06/12 07:49:05;;;;;;;12.32;4.65;;;18.90;87.00;;;;;;4943477;28;20043;-81
2021/06/12 07:51:33;;;;;;;12.43;5.28;;;18.90;86.50;;;;;;4940196;28;20103;-82
2021/06/12 07:54:01;;;;;;;15.57;5.75;;;18.90;86.30;;;;;;4949498;28;20043;-82
2021/06/12 07:56:27;;;;;;;11.07;4.82;;;18.90;86.30;;;;;;4950941;28;20035;-81
2021/06/12 07:58:53;;;;;;;11.40;5.00;;;18.90;86.20;;;;;;4958787;28;20039;-81
2021/06/12 08:01:19;;;;;;;9.55;5.00;;;18.90;86.40;;;;;;4944499;28;20493;-80
2021/06/12 08:03:44;;;;;;;9.63;4.90;;;19.00;85.60;;;;;;4936130;28;20475;-82
2021/06/12 08:06:10;;;;;;;10.98;4.50;;;19.10;85.60;;;;;;4930970;28;20378;-80
2021/06/12 08:08:36;;;;;;;12.60;4.32;;;19.10;84.50;;;;;;4942607;28;20552;-81
2021/06/12 08:11:03;;;;;;;11.63;4.85;;;19.10;84.40;;;;;;4960575;28;20051;-81
2021/06/12 08:13:29;;;;;;;8.18;3.85;;;19.20;83.90;;;;;;4938010;28;20086;-80
2021/06/12 08:15:55;;;;;;;11.57;4.30;;;19.30;82.50;;;;;;4952185;28;20043;-81
2021/06/12 08:18:21;;;;;;;10.85;4.30;;;19.20;81.30;;;;;;4972204;28;20035;-81
2021/06/12 08:20:48;;;;;;;9.50;4.20;;;19.20;81.60;;;;;;4950923;28;20402;-82
2021/06/12 08:23:14;;;;;;;10.93;4.30;;;19.20;83.00;;;;;;4936392;28;20031;-82
2021/06/12 08:25:40;;;;;;;9.07;4.03;;;19.20;82.40;;;;;;4954465;28;20040;-81
2021/06/12 08:28:06;;;;;;;10.45;4.35;;;19.10;82.80;;;;;;4970643;28;20047;-82
2021/06/12 08:30:35;;;;;;;10.02;3.67;;;19.20;83.30;;;;;;4943906;28;20035;-82
2021/06/12 08:33:05;;;;;;;10.95;3.88;;;19.20;81.30;;;;;;4967081;28;20052;-82
2021/06/12 08:35:31;;;;;;;9.13;3.60;;;19.10;80.80;;;;;;4934531;28;20123;-80
2021/06/12 08:37:57;;;;;;;11.60;4.00;;;19.20;80.30;;;;;;4930361;28;20107;-81
2021/06/12 08:40:23;;;;;;;8.10;3.55;;;19.20;80.30;;;;;;4969258;28;20122;-82
2021/06/12 08:42:50;;;;;;;8.63;3.60;;;19.20;79.90;;;;;;4936313;28;20043;-81
2021/06/12 08:45:28;;;;;;;12.70;4.20;;;19.20;79.50;;;;;;4921464;28;20039;-80
2021/06/12 08:47:55;;;;;;;7.25;3.60;;;19.30;77.80;;;;;;4952985;28;20533;-82
2021/06/12 08:50:23;;;;;;;8.73;3.47;;;19.30;77.60;;;;;;4947848;28;20101;-81
2021/06/12 08:52:51;;;;;;;15.15;3.88;;;19.20;76.90;;;;;;4932564;28;20095;-80
2021/06/12 08:55:18;;;;;;;13.73;4.68;;;19.30;76.90;;;;;;4939143;28;20046;-83
2021/06/12 08:57:44;;;;;;;10.70;4.03;;;19.20;76.80;;;;;;4931819;28;20087;-79
2021/06/12 09:00:11;;;;;;;9.88;3.65;;;19.10;76.60;;;;;;4937572;28;20061;-81
2021/06/12 09:03:06;;;;;;;10.52;4.00;;;19.00;75.90;;;;;;4958488;28;20064;-81
2021/06/12 09:05:49;;;;;;;12.20;3.30;;;18.90;76.30;;;;;;4949758;28;20031;-83
2021/06/12 09:08:22;;;;;;;10.65;3.60;;;18.80;76.40;;;;;;4957269;28;20065;-81
2021/06/12 09:10:51;;;;;;;9.00;3.88;;;18.80;77.70;;;;;;4955470;28;20088;-81
2021/06/12 09:13:33;;;;;;;8.50;3.55;;;18.80;77.40;;;;;;4946869;28;20494;-80
2021/06/12 09:16:01;;;;;;;7.30;3.15;;;18.80;77.40;;;;;;4957575;28;20054;-82
2021/06/12 09:18:41;;;;;;;7.70;3.50;;;18.80;77.40;;;;;;4936177;28;20126;-82
2021/06/12 09:21:09;;;;;;;8.27;3.38;;;18.90;76.70;;;;;;4953929;28;20049;-83
2021/06/12 09:23:44;;;;;;;10.85;3.58;;;18.80;76.50;;;;;;4954445;28;20036;-83
2021/06/12 09:26:11;;;;;;;9.88;2.88;;;18.80;75.50;;;;;;4941580;28;20543;-82
2021/06/12 09:28:48;;;;;;;9.23;3.30;;;18.70;75.50;;;;;;4923549;28;20062;-81
2021/06/12 09:31:20;;;;;;;11.35;3.28;;;18.70;75.50;;;;;;4958235;28;20067;-81
2021/06/12 09:33:47;;;;;;;9.32;3.20;;;18.70;75.70;;;;;;4952596;28;20038;-80
2021/06/12 09:36:13;;;;;;;8.38;3.20;;;18.90;75.70;;;;;;4954535;28;20046;-80
2021/06/12 09:38:40;;;;;;;8.35;3.22;;;19.00;73.60;;;;;;4929305;28;20445;-82
2021/06/12 09:41:29;;;;;;;8.80;3.15;;;19.00;74.10;;;;;;4939489;28;20059;-81
2021/06/12 09:43:55;;;;;;;6.25;3.00;;;19.00;71.60;;;;;;4945387;28;20043;-85
2021/06/12 09:46:36;;;;;;;6.97;3.00;;;19.00;73.20;;;;;;4927195;28;20035;-82
2021/06/12 09:49:04;;;;;;;8.85;2.95;;;18.90;72.00;;;;;;4936947;28;20035;-80
2021/06/12 09:51:30;;;;;;;11.68;3.25;;;18.70;72.80;;;;;;4943207;28;20533;-83
2021/06/12 09:53:58;;;;;;;10.57;3.03;;;18.70;73.40;;;;;;4939714;28;20046;-81
2021/06/12 09:56:25;;;;;;;10.73;3.08;;;18.80;74.40;;;;;;4956009;28;20050;-82
2021/06/12 09:58:53;;;;;;;9.48;3.20;;;19.00;75.40;;;;;;4945979;28;20133;-83
2021/06/12 10:01:21;;;;;;;8.15;3.10;;;19.10;75.00;;;;;;4959950;28;20044;-82
2021/06/12 10:03:48;;;;;;;6.68;2.60;;;19.20;74.20;;;;;;4942369;28;20039;-82
2021/06/12 10:06:24;;;;;;;8.63;2.75;;;19.30;73.40;;;;;;4950001;28;20034;-80
2021/06/12 10:08:52;;;;;;;11.43;2.88;;;19.30;73.20;;;;;;4949734;28;20043;-82
2021/06/12 10:11:25;;;;;;;7.20;2.25;;;19.40;72.30;;;;;;4948410;28;20043;-82
2021/06/12 10:13:51;;;;;;;10.18;2.90;;;19.40;71.50;;;;;;4938143;28;20739;-80
2021/06/12 10:16:18;;;;;;;11.48;2.40;;;19.40;71.80;;;;;;4978655;28;20043;-81
2021/06/12 10:18:45;;;;;;;6.97;2.30;;;19.40;70.20;;;;;;4942090;28;20035;-82
2021/06/12 10:21:12;;;;;;;9.75;2.20;;;19.30;69.70;;;;;;4975438;28;20034;-83
2021/06/12 10:23:39;;;;;;;8.15;2.03;;;19.30;67.90;;;;;;4948647;28;20034;-81
2021/06/12 10:26:09;;;;;;;9.73;2.47;;;19.20;67.50;;;;;;4947082;28;20034;-81
2021/06/12 10:28:35;;;;;;;6.47;2.30;;;19.30;67.40;;;;;;4921436;28;20035;-79
2021/06/12 10:31:11;;;;;;;7.97;2.42;;;19.30;67.70;;;;;;4944784;28;20046;-83
2021/06/12 10:33:42;;;;;;;4.32;1.88;;;19.30;65.70;;;;;;4948265;28;20093;-84
2021/06/12 10:36:14;;;;;;;8.55;2.03;;;19.30;66.30;;;;;;4945627;28;20039;-83
2021/06/12 10:38:40;;;;;;;4.00;2.00;;;19.40;66.60;;;;;;4945253;28;20035;-81
2021/06/12 10:41:34;;;;;;;8.38;2.05;;;19.50;66.20;;;;;;4958003;28;20038;-82
2021/06/12 10:44:03;;;;;;;10.30;2.20;;;19.50;66.10;;;;;;4956108;28;20055;-83
2021/06/12 10:46:31;;;;;;;7.90;2.22;;;19.60;65.00;;;;;;4972565;28;20172;-81
2021/06/12 10:49:02;;;;;;;9.13;1.98;;;19.70;63.90;;;;;;4947494;28;20042;-83
2021/06/12 10:51:28;;;;;;;11.88;2.35;;;19.60;64.10;;;;;;4943754;28;20042;-81
2021/06/12 10:54:18;;;;;;;5.03;1.88;;;19.60;63.60;;;;;;4948667;28;20570;-81
2021/06/12 10:56:51;;;;;;;6.97;1.92;;;19.50;63.20;;;;;;4945444;28;20064;-81
2021/06/12 10:59:44;;;;;;;7.03;2.15;;;19.50;63.90;;;;;;4943131;28;20039;-83
2021/06/12 11:02:19;;;;;;;8.07;2.05;;;19.60;64.60;;;;;;4946638;28;20062;-83
2021/06/12 11:04:58;;;;;;;4.25;1.73;;;19.70;64.90;;;;;;4943816;28;20795;-81
2021/06/12 11:07:36;;;;;;;8.05;2.10;;;19.80;64.00;;;;;;4911295;28;20516;-83
2021/06/12 11:10:15;;;;;;;3.95;1.90;;;19.90;65.60;;;;;;4954852;28;20035;-82
2021/06/12 11:12:44;;;;;;;6.63;1.95;;;19.90;63.90;;;;;;4959990;28;20959;-84
2021/06/12 11:15:23;;;;;;;5.85;1.98;;;19.80;63.50;;;;;;4945800;28;20035;-84
2021/06/12 11:18:22;;;;;;;7.45;1.90;;;19.80;63.70;;;;;;4955598;28;20745;-82
2021/06/12 11:21:04;;;;;;;5.43;1.75;;;19.80;65.20;;;;;;4933285;28;20119;-82
2021/06/12 11:23:53;;;;;;;;;;;20.00;65.80;;;;;;4950265;28;20043;-82
2021/06/12 11:26:19;;;;;;;8.32;2.15;;;20.00;65.20;;;;;;4964142;28;20024;-84
2021/06/12 11:28:47;;;;;;;4.90;1.60;;;20.10;66.50;;;;;;4947269;28;20690;-85
2021/06/12 11:31:27;;;;;;;7.00;1.65;;;20.20;65.20;;;;;;5053520;23;20036;-84
2021/06/12 11:34:12;;;;;;;6.70;2.20;;;20.30;64.90;;;;;;4921540;29;20056;-83
2021/06/12 11:36:37;;;;;;;10.27;1.98;;;20.40;64.70;;;;;;4917035;29;20306;-86
2021/06/12 11:39:04;;;;;;;6.25;1.92;;;20.50;63.60;;;;;;4889898;29;20033;-84
2021/06/12 11:41:30;;;;;;;4.95;1.83;;;20.40;62.20;;;;;;4919681;28;20060;-87
2021/06/12 11:43:56;;;;;;;5.53;1.50;;;20.30;62.00;;;;;;4886421;29;20323;-86
2021/06/12 11:46:25;;;;;;;8.57;1.90;;;20.30;62.90;;;;;;4862489;29;20036;-86
2021/06/12 11:48:53;;;;;;;7.82;1.85;;;20.40;63.70;;;;;;4938432;28;20048;-87
2021/06/12 11:51:32;;;;;;;6.30;1.92;;;20.50;64.70;;;;;;4884822;29;20538;-87
2021/06/12 11:54:08;;;;;;;5.47;1.58;;;20.50;62.20;;;;;;4897352;29;20056;-84
2021/06/12 11:56:40;;;;;;;5.93;1.75;;;20.50;61.70;;;;;;4932262;28;20040;-85
2021/06/12 11:59:09;;;;;;;9.73;2.38;;;20.30;61.10;;;;;;4897731;29;20116;-82
2021/06/12 12:01:41;;;;;;;7.60;1.90;;;20.10;62.20;;;;;;4911830;29;20174;-85
2021/06/12 12:04:09;;;;;;;5.47;2.17;;;20.00;62.90;;;;;;4897805;29;20044;-83
2021/06/12 12:06:35;;;;;;;6.28;1.98;;;20.00;63.30;;;;;;4901368;29;20041;-86
2021/06/12 12:09:04;;;;;;;5.45;1.65;;;20.00;63.50;;;;;;4883451;29;20300;-85
2021/06/12 12:11:30;;;;;;;8.85;1.73;;;20.10;63.80;;;;;;4896340;29;20052;-83
2021/06/12 12:14:04;;;;;;;4.18;1.20;;;20.10;62.50;;;;;;4901520;29;20435;-85
2021/06/12 12:16:31;;;;;;;7.43;1.65;;;20.10;61.20;;;;;;4893917;29;20083;-85
2021/06/12 12:18:59;;;;;;;5.65;1.52;;;20.00;61.40;;;;;;4912909;29;20047;-81
2021/06/12 12:21:37;;;;;;;6.05;1.60;;;19.90;60.30;;;;;;4900714;29;20522;-87
2021/06/12 12:24:06;;;;;;;2.42;1.30;;;19.90;60.40;;;;;;4911713;29;20126;-83
2021/06/12 12:26:32;;;;;;;6.95;1.42;;;19.90;61.70;;;;;;4901216;29;20475;-81
2021/06/12 12:29:08;;;;;;;3.92;1.50;;;20.00;61.40;;;;;;4885383;29;20047;-86
2021/06/12 12:31:42;;;;;;;6.43;1.40;;;20.20;62.00;;;;;;4902759;29;20068;-82
2021/06/12 12:34:08;;;;;;;8.50;1.60;;;20.20;60.40;;;;;;4910874;29;20042;-84
2021/06/12 12:36:46;;;;;;;15.52;1.50;;;20.30;60.10;;;;;;4912602;29;20036;-81
2021/06/12 12:39:13;;;;;;;7.78;1.58;;;20.30;59.00;;;;;;4901367;29;20124;-83
2021/06/12 12:41:39;;;;;;;10.77;1.90;;;20.20;58.80;;;;;;4888648;29;20071;-83
2021/06/12 12:44:13;;;;;;;4.80;1.50;;;20.10;59.70;;;;;;4881412;29;20043;-83
2021/06/12 12:46:46;;;;;;;4.78;1.50;;;20.00;61.00;;;;;;4907937;29;20032;-84
2021/06/12 12:49:42;;;;;;;6.38;1.60;;;19.90;61.30;;;;;;4912936;29;20114;-84
2021/06/12 12:52:27;;;;;;;4.93;1.30;;;20.00;61.80;;;;;;4903372;29;20044;-84
2021/06/12 12:55:06;;;;;;;4.28;1.40;;;20.00;61.70;;;;;;4899186;29;20028;-85
2021/06/12 12:57:47;;;;;;;8.60;2.03;;;20.10;61.70;;;;;;4909970;29;20039;-84
2021/06/12 13:00:22;;;;;;;3.83;1.50;;;20.10;61.50;;;;;;4926095;28;20597;-84
2021/06/12 13:02:53;;;;;;;5.28;1.80;;;20.10;62.20;;;;;;4904424;29;20123;-84
2021/06/12 13:05:19;;;;;;;4.82;1.60;;;20.00;62.90;;;;;;4915983;29;20047;-83
2021/06/12 13:07:56;;;;;;;7.93;1.85;;;20.10;62.70;;;;;;4903821;29;20131;-84
2021/06/12 13:10:32;;;;;;;8.68;2.38;;;20.00;62.20;;;;;;4896346;29;20558;-83
2021/06/12 13:12:59;;;;;;;8.35;2.25;;;20.00;62.30;;;;;;4911073;29;20044;-83
2021/06/12 13:15:25;;;;;;;5.45;1.90;;;20.00;62.70;;;;;;4899064;29;20048;-84